Time;durP1;ratioP1;P1;durP2;ratioP2;P2;SDS_P1;SDS_P2;PMS_P1;PMS_P2;Temp;Humidity;BMP_temperature;BMP_pressure;BME280_temperature;BME280_humidity;BME280_pressure;Samples;Min_cycle;Max_cycle;Signal;HPM_P1;HPM_P2
2022/10/17 00:01:49;;;;;;;;;;;;;;;23.76;45.87;94829.84;5057886;28;8528;-59
2022/10/17 00:04:17;;;;;;;;;;;;;;;23.74;46.20;94830.34;5016905;28;9108;-59
2022/10/17 00:06:43;;;;;;;;;;;;;;;23.74;46.28;94830.34;5015585;28;7057;-59
2022/10/17 00:09:11;;;;;;;;;;;;;;;23.75;46.46;94833.88;5015352;28;7594;-59
2022/10/17 00:11:38;;;;;;;;;;;;;;;23.74;46.37;94840.59;5023813;28;7266;-59
2022/10/17 00:14:14;;;;;;;;;;;;;;;23.74;46.15;94835.09;5022925;28;7055;-59
2022/10/17 00:16:42;;;;;;;;;;;;;;;23.73;45.99;94836.31;5013814;28;10141;-59
2022/10/17 00:19:10;;;;;;;;;;;;;;;23.73;45.97;94836.31;5031457;28;7534;-59
2022/10/17 00:21:47;;;;;;;;;;;;;;;23.73;46.20;94839.06;5016064;28;9131;-58
2022/10/17 00:24:24;;;;;;;;;;;;;;;23.73;46.01;94836.31;5045846;28;7578;-58
2022/10/17 00:27:02;;;;;;;;;;;;;;;23.73;45.81;94836.31;5016963;28;7250;-59
2022/10/17 00:29:28;;;;;;;;;;;;;;;23.72;46.21;94841.06;5016411;28;7367;-59
2022/10/17 00:31:58;;;;;;;;;;;;;;;23.71;46.17;94839.56;5032651;28;9107;-59
2022/10/17 00:34:33;;;;;;;;;;;;;;;23.68;46.03;94832.31;5032696;28;6990;-59
2022/10/17 00:37:08;;;;;;;;;;;;;;;23.70;46.21;94837.31;5016287;28;7345;-59
2022/10/17 00:39:34;;;;;;;;;;;;;;;23.69;46.26;94842.03;5003299;28;9721;-59
2022/10/17 00:42:00;;;;;;;;;;;;;;;23.69;46.26;94841.28;5069009;28;9058;-59
2022/10/17 00:44:31;;;;;;;;;;;;;;;23.68;46.59;94845.28;5069576;28;7771;-59
2022/10/17 00:47:17;;;;;;;;;;;;;;;23.68;46.35;94842.53;5057983;28;7077;-59
2022/10/17 00:49:44;;;;;;;;;;;;;;;23.68;46.00;94839.78;5043266;28;8488;-59
2022/10/17 00:52:34;;;;;;;;;;;;;;;23.67;46.14;94843.75;5062755;28;7176;-59
2022/10/17 00:55:28;;;;;;;;;;;;;;;23.66;45.91;94837.50;5065325;28;7673;-59
2022/10/17 00:57:56;;;;;;;;;;;;;;;23.65;46.19;94835.25;5050104;28;6967;-59
2022/10/17 01:00:26;;;;;;;;;;;;;;;23.64;46.29;94831.75;5064944;28;7268;-59
2022/10/17 01:02:55;;;;;;;;;;;;;;;23.66;45.96;94840.25;5063243;28;7091;-66
2022/10/17 01:05:21;;;;;;;;;;;;;;;23.65;46.27;94832.50;5082704;28;9067;-59
2022/10/17 01:07:51;;;;;;;;;;;;;;;23.65;45.74;94833.28;5048260;28;7377;-59
2022/10/17 01:10:19;;;;;;;;;;;;;;;23.65;46.04;94832.50;5061555;28;8826;-59
2022/10/17 01:12:48;;;;;;;;;;;;;;;23.64;45.82;94829.00;5047114;28;6981;-59
2022/10/17 01:15:24;;;;;;;;;;;;;;;23.66;46.39;94831.28;5067018;28;7212;-59
2022/10/17 01:18:29;;;;;;;;;;;;;;;23.65;45.90;94827.03;5047198;28;7250;-59
2022/10/17 01:21:40;;;;;;;;;;;;;;;23.65;45.98;94824.28;5074847;28;7528;-59
2022/10/17 01:24:33;;;;;;;;;;;;;;;23.63;46.08;94826.75;5086935;28;9376;-59
2022/10/17 01:27:29;;;;;;;;;;;;;;;23.63;46.83;94832.25;5087299;28;7003;-59
2022/10/17 01:30:32;;;;;;;;;;;;;;;23.63;46.21;94821.25;4992368;28;9440;-59
2022/10/17 01:33:14;;;;;;;;;;;;;;;23.61;46.37;94823.75;4976929;28;7097;-59
2022/10/17 01:35:48;;;;;;;;;;;;;;;23.62;46.26;94826.00;4992152;28;6945;-59
2022/10/17 01:38:48;;;;;;;;;;;;;;;23.60;46.00;94822.22;4992842;28;9847;-59
2022/10/17 01:41:37;;;;;;;;;;;;;;;23.60;46.55;94822.22;4907117;28;7589;-59
2022/10/17 01:44:31;;;;;;;;;;;;;;;23.58;45.62;94813.72;4934787;29;7319;-59
2022/10/17 01:47:07;;;;;;;;;;;;;;;23.60;46.43;94816.75;4935048;28;9752;-59
2022/10/17 01:49:38;;;;;;;;;;;;;;;23.60;46.38;94827.72;4932131;29;6970;-59
2022/10/17 01:52:15;;;;;;;;;;;;;;;23.60;46.47;94822.22;4915405;29;7987;-59
2022/10/17 01:54:57;;;;;;;;;;;;;;;23.57;46.27;94815.75;4934343;29;7238;-59
2022/10/17 01:57:29;;;;;;;;;;;;;;;23.56;45.91;94811.47;4927345;29;7560;-59
2022/10/17 02:00:01;;;;;;;;;;;;;;;23.57;45.86;94818.50;4937498;28;7090;-59
2022/10/17 02:02:36;;;;;;;;;;;;;;;23.56;46.27;94818.97;4930516;29;7090;-59
2022/10/17 02:05:06;;;;;;;;;;;;;;;23.55;46.42;94820.22;4924452;28;9455;-59
2022/10/17 02:07:32;;;;;;;;;;;;;;;23.53;46.35;94820.69;4987348;28;7979;-58
2022/10/17 02:09:57;;;;;;;;;;;;;;;23.56;45.96;94822.47;5001143;28;9224;-59
2022/10/17 02:12:32;;;;;;;;;;;;;;;23.57;46.04;94821.22;4995072;28;7315;-59
2022/10/17 02:15:15;;;;;;;;;;;;;;;23.56;46.39;94822.47;5011066;28;9382;-59
2022/10/17 02:18:23;;;;;;;;;;;;;;;23.55;46.00;94822.97;5006686;28;7247;-61
2022/10/17 02:21:01;;;;;;;;;;;;;;;23.53;46.36;94812.44;5053908;28;7271;-62
2022/10/17 02:23:41;;;;;;;;;;;;;;;23.53;46.60;94820.69;5063668;28;7091;-61
2022/10/17 02:26:24;;;;;;;;;;;;;;;23.52;46.07;94810.94;5054910;28;7156;-61
2022/10/17 02:29:06;;;;;;;;;;;;;;;23.53;45.92;94811.72;5054115;28;10148;-61
2022/10/17 02:32:09;;;;;;;;;;;;;;;23.53;46.36;94817.19;5062520;28;7217;-61
2022/10/17 02:34:37;;;;;;;;;;;;;;;23.52;45.72;94816.44;5006285;28;7056;-61
2022/10/17 02:37:10;;;;;;;;;;;;;;;23.52;46.23;94812.94;5014514;28;7347;-61
2022/10/17 02:39:39;;;;;;;;;;;;;;;23.52;46.32;94818.44;5012655;28;7032;-61
2022/10/17 02:42:10;;;;;;;;;;;;;;;23.51;46.43;94808.69;5021821;28;6966;-60
2022/10/17 02:44:41;;;;;;;;;;;;;;;23.51;46.16;94816.94;5005589;28;7407;-61
2022/10/17 02:47:42;;;;;;;;;;;;;;;23.50;46.24;94807.19;5004768;28;7397;-61
2022/10/17 02:50:09;;;;;;;;;;;;;;;23.50;46.21;94818.94;5044043;28;8927;-61
2022/10/17 02:53:02;;;;;;;;;;;;;;;23.50;45.96;94820.91;5012274;28;8771;-61
2022/10/17 02:55:34;;;;;;;;;;;;;;;23.48;46.54;94828.88;4998778;28;7041;-60
2022/10/17 02:58:12;;;;;;;;;;;;;;;23.50;46.54;94823.66;5007242;28;7218;-61
2022/10/17 03:00:49;;;;;;;;;;;;;;;23.48;46.46;94817.91;5009023;28;7271;-61
2022/10/17 03:03:25;;;;;;;;;;;;;;;23.49;46.16;94822.91;5006834;28;7254;-61
2022/10/17 03:05:51;;;;;;;;;;;;;;;23.49;46.18;94820.16;5034934;28;7230;-61
2022/10/17 03:08:18;;;;;;;;;;;;;;;23.48;46.49;94821.41;5013403;28;7003;-61
2022/10/17 03:10:44;;;;;;;;;;;;;;;23.48;46.14;94823.38;5048425;28;7181;-61
2022/10/17 03:13:10;;;;;;;;;;;;;;;23.48;45.99;94832.38;5053700;28;7196;-61
2022/10/17 03:15:37;;;;;;;;;;;;;;;23.48;46.04;94837.13;5071448;28;7149;-61
2022/10/17 03:18:03;;;;;;;;;;;;;;;23.46;46.24;94840.34;5048662;28;7303;-61
2022/10/17 03:20:36;;;;;;;;;;;;;;;23.47;46.04;94838.38;5081297;28;7141;-62
2022/10/17 03:23:04;;;;;;;;;;;;;;;23.46;46.30;94842.34;5061948;28;8710;-61
2022/10/17 03:25:30;;;;;;;;;;;;;;;23.46;46.59;94845.84;5040886;28;9457;-61
2022/10/17 03:28:10;;;;;;;;;;;;;;;23.45;46.41;94843.56;5063317;28;8228;-61
2022/10/17 03:30:37;;;;;;;;;;;;;;;23.45;46.11;94833.34;5062256;28;7277;-60
2022/10/17 03:33:08;;;;;;;;;;;;;;;23.46;46.67;94842.34;5077133;28;9371;-61
2022/10/17 03:35:46;;;;;;;;;;;;;;;23.44;46.44;94842.06;5063055;28;8890;-61
2022/10/17 03:38:15;;;;;;;;;;;;;;;23.44;46.62;94842.84;5044375;28;7244;-61
2022/10/17 03:40:54;;;;;;;;;;;;;;;23.44;46.54;94856.56;5072625;28;8704;-61
2022/10/17 03:43:24;;;;;;;;;;;;;;;23.42;46.23;94858.28;5065625;28;9130;-61
2022/10/17 03:45:51;;;;;;;;;;;;;;;23.38;46.22;94872.19;5054299;28;7240;-61
2022/10/17 03:48:21;;;;;;;;;;;;;;;23.33;46.37;94869.38;5053840;28;7081;-61
2022/10/17 03:51:08;;;;;;;;;;;;;;;23.35;46.42;94864.19;5072123;28;7040;-61
2022/10/17 03:53:40;;;;;;;;;;;;;;;23.35;46.61;94877.91;5055581;28;7248;-61
2022/10/17 03:56:11;;;;;;;;;;;;;;;23.36;46.28;94884.94;5060981;28;7426;-60
2022/10/17 03:58:45;;;;;;;;;;;;;;;23.39;46.87;94884.69;5061264;28;8706;-61
2022/10/17 04:01:15;;;;;;;;;;;;;;;23.41;46.50;94878.72;5082112;28;7259;-62
2022/10/17 04:03:55;;;;;;;;;;;;;;;23.41;46.41;94892.44;5056425;28;7303;-61
2022/10/17 04:06:22;;;;;;;;;;;;;;;23.41;46.44;94892.44;5070401;28;7484;-60
2022/10/17 04:08:51;;;;;;;;;;;;;;;23.39;46.83;94889.44;5056519;28;7344;-61
2022/10/17 04:11:20;;;;;;;;;;;;;;;23.37;46.31;94889.16;5066741;28;7362;-61
2022/10/17 04:13:48;;;;;;;;;;;;;;;23.38;46.39;94898.91;5058015;28;7280;-60
2022/10/17 04:16:24;;;;;;;;;;;;;;;23.37;46.20;94884.44;5060010;28;7231;-61
2022/10/17 04:18:59;;;;;;;;;;;;;;;23.36;46.53;94884.94;5065114;28;7104;-61
2022/10/17 04:21:41;;;;;;;;;;;;;;;23.36;46.23;94882.19;5070359;28;7753;-61
2022/10/17 04:24:12;;;;;;;;;;;;;;;23.37;46.19;94891.91;5053409;28;8584;-61
2022/10/17 04:26:38;;;;;;;;;;;;;;;23.38;46.10;94888.66;5082513;28;9517;-61
2022/10/17 04:29:06;;;;;;;;;;;;;;;23.35;45.99;94891.63;5064739;28;7851;-61
2022/10/17 04:31:32;;;;;;;;;;;;;;;23.37;46.66;94892.66;5067772;28;7419;-60
2022/10/17 04:34:07;;;;;;;;;;;;;;;23.36;46.73;94893.91;5037719;28;7391;-61
2022/10/17 04:36:34;;;;;;;;;;;;;;;23.35;46.27;94900.63;5072309;28;7762;-60
2022/10/17 04:39:02;;;;;;;;;;;;;;;23.37;46.46;94905.63;5056133;28;7203;-61
2022/10/17 04:41:32;;;;;;;;;;;;;;;23.37;46.36;94909.13;5071870;28;6895;-61
2022/10/17 04:44:09;;;;;;;;;;;;;;;23.37;46.26;94911.13;5045539;28;7157;-61
2022/10/17 04:46:56;;;;;;;;;;;;;;;23.38;45.98;94927.09;5056147;28;7521;-61
2022/10/17 04:49:49;;;;;;;;;;;;;;;23.36;46.43;94915.13;5057872;28;9402;-61
2022/10/17 04:52:16;;;;;;;;;;;;;;;23.37;46.21;94922.09;4973796;28;6968;-61
2022/10/17 04:55:09;;;;;;;;;;;;;;;23.36;45.98;94917.88;4957407;28;7385;-61
2022/10/17 04:57:43;;;;;;;;;;;;;;;23.35;46.13;94916.34;4989724;28;7056;-61
2022/10/17 05:00:11;;;;;;;;;;;;;;;23.35;46.18;94917.09;4978869;28;9519;-61
2022/10/17 05:02:48;;;;;;;;;;;;;;;23.35;46.32;94924.56;4967242;28;9561;-61
2022/10/17 05:05:24;;;;;;;;;;;;;;;23.35;46.74;94930.06;4973318;28;9030;-61
2022/10/17 05:07:50;;;;;;;;;;;;;;;23.35;45.99;94921.84;4992490;28;7002;-61
2022/10/17 05:10:16;;;;;;;;;;;;;;;23.34;46.58;94914.84;4973132;28;9035;-60
2022/10/17 05:12:42;;;;;;;;;;;;;;;23.33;46.50;94921.53;4989139;28;9063;-61
2022/10/17 05:15:10;;;;;;;;;;;;;;;23.33;46.73;94918.78;4972962;28;8692;-61
2022/10/17 05:17:38;;;;;;;;;;;;;;;23.32;46.60;94917.28;4957286;28;8248;-61
2022/10/17 05:20:05;;;;;;;;;;;;;;;23.30;46.37;94923.25;4989615;28;7340;-61
2022/10/17 05:22:32;;;;;;;;;;;;;;;23.32;46.24;94925.50;4977317;28;7442;-61
2022/10/17 05:24:58;;;;;;;;;;;;;;;23.30;46.70;94926.00;4992983;28;7244;-61
2022/10/17 05:27:54;;;;;;;;;;;;;;;23.30;46.03;94923.25;4957155;28;9621;-61
2022/10/17 05:30:31;;;;;;;;;;;;;;;23.28;46.42;94917.50;5014460;28;7281;-61
2022/10/17 05:32:58;;;;;;;;;;;;;;;23.25;46.41;94919.22;5032161;28;9123;-60
2022/10/17 05:35:27;;;;;;;;;;;;;;;23.27;46.16;94916.72;5031642;28;7226;-61
2022/10/17 05:38:02;;;;;;;;;;;;;;;23.26;46.29;94919.97;5022042;28;7014;-60
2022/10/17 05:40:30;;;;;;;;;;;;;;;23.27;46.27;94914.00;5015060;28;7468;-61
2022/10/17 05:42:59;;;;;;;;;;;;;;;23.26;45.93;94919.97;5015157;28;8680;-61
2022/10/17 05:45:25;;;;;;;;;;;;;;;23.25;46.53;94927.44;5031573;28;7142;-61
2022/10/17 05:47:54;;;;;;;;;;;;;;;23.24;46.69;94920.47;5031848;28;8958;-61
2022/10/17 05:50:33;;;;;;;;;;;;;;;23.26;46.31;94925.47;5031965;28;7099;-61
2022/10/17 05:53:08;;;;;;;;;;;;;;;23.25;46.27;94921.94;5031406;28;9184;-61
2022/10/17 05:55:41;;;;;;;;;;;;;;;23.26;46.45;94917.22;5031303;28;7147;-61
2022/10/17 05:58:15;;;;;;;;;;;;;;;23.26;46.47;94928.19;5031393;28;8418;-61
2022/10/17 06:00:45;;;;;;;;;;;;;;;23.27;46.31;94937.19;5034039;28;10134;-61
2022/10/17 06:03:13;;;;;;;;;;;;;;;23.25;46.23;94930.19;5031536;28;8301;-61
2022/10/17 06:05:40;;;;;;;;;;;;;;;23.25;46.35;94940.41;5032009;28;7048;-61
2022/10/17 06:08:06;;;;;;;;;;;;;;;23.25;46.36;94949.41;5067699;28;8931;-60
2022/10/17 06:10:34;;;;;;;;;;;;;;;23.24;46.88;94955.38;5088556;28;7467;-61
2022/10/17 06:13:03;;;;;;;;;;;;;;;23.23;46.62;94957.34;5063278;28;7012;-59
2022/10/17 06:15:30;;;;;;;;;;;;;;;23.24;46.16;94964.38;5051864;28;9521;-61
2022/10/17 06:17:57;;;;;;;;;;;;;;;23.23;46.33;94965.59;5066638;28;7418;-61
2022/10/17 06:20:23;;;;;;;;;;;;;;;23.23;46.47;94968.34;5058313;28;7215;-61
2022/10/17 06:22:50;;;;;;;;;;;;;;;23.24;46.16;94971.84;5062317;28;9505;-61
2022/10/17 06:25:21;;;;;;;;;;;;;;;23.24;45.87;94982.81;5061120;28;9218;-61
2022/10/17 06:27:57;;;;;;;;;;;;;;;23.22;46.78;94975.06;5072460;28;7912;-61
2022/10/17 06:30:29;;;;;;;;;;;;;;;23.24;46.36;94988.31;5071694;28;7158;-61
2022/10/17 06:33:02;;;;;;;;;;;;;;;23.22;46.38;94991.53;5062043;28;9822;-61
2022/10/17 06:35:31;;;;;;;;;;;;;;;23.23;45.74;94993.03;5064716;28;8692;-61
2022/10/17 06:37:57;;;;;;;;;;;;;;;23.25;46.21;94992.53;5072599;28;9437;-61
2022/10/17 06:40:26;;;;;;;;;;;;;;;23.24;46.32;95002.78;5069951;28;7399;-61
2022/10/17 06:42:55;;;;;;;;;;;;;;;23.25;45.99;95000.78;5066697;28;7015;-61
2022/10/17 06:45:26;;;;;;;;;;;;;;;23.27;46.38;95004.56;5054623;28;7268;-61
2022/10/17 06:47:58;;;;;;;;;;;;;;;23.26;46.09;95013.28;5061209;28;7337;-61
2022/10/17 06:50:28;;;;;;;;;;;;;;;23.25;46.17;95011.75;5067183;28;7400;-61
2022/10/17 06:52:57;;;;;;;;;;;;;;;23.23;46.60;95009.50;5071881;28;7336;-62
2022/10/17 06:55:23;;;;;;;;;;;;;;;23.21;46.56;95017.47;5068892;28;7210;-61
2022/10/17 06:58:01;;;;;;;;;;;;;;;23.22;46.33;95018.97;5061632;28;9116;-61
2022/10/17 07:00:38;;;;;;;;;;;;;;;23.22;46.44;95021.72;5070176;28;9161;-61
2022/10/17 07:03:08;;;;;;;;;;;;;;;23.22;46.29;95024.47;5067142;28;7328;-61
2022/10/17 07:06:01;;;;;;;;;;;;;;;23.23;46.28;95020.47;5056911;28;7701;-61
2022/10/17 07:08:27;;;;;;;;;;;;;;;23.21;46.22;95028.44;5052945;28;8886;-61
2022/10/17 07:10:53;;;;;;;;;;;;;;;23.24;46.72;95026.72;5063122;28;7003;-61
2022/10/17 07:13:21;;;;;;;;;;;;;;;23.23;46.41;95036.94;5057324;28;7389;-61
2022/10/17 07:15:51;;;;;;;;;;;;;;;23.22;46.43;95035.44;5083737;28;7236;-61
2022/10/17 07:18:28;;;;;;;;;;;;;;;23.22;46.56;95040.94;5079633;28;7339;-61
2022/10/17 07:20:56;;;;;;;;;;;;;;;23.19;46.38;95047.38;5040244;28;7239;-61
2022/10/17 07:23:24;;;;;;;;;;;;;;;23.17;46.34;95049.84;5059636;28;7059;-61
2022/10/17 07:26:12;;;;;;;;;;;;;;;23.20;46.65;95057.13;5086650;28;7292;-61
2022/10/17 07:28:54;;;;;;;;;;;;;;;23.22;46.69;95053.91;5058245;28;9324;-61
2022/10/17 07:31:24;;;;;;;;;;;;;;;23.22;46.96;95065.63;5068734;28;8852;-61
2022/10/17 07:33:59;;;;;;;;;;;;;;;23.23;46.13;95066.38;5047275;28;7135;-61
2022/10/17 07:36:29;;;;;;;;;;;;;;;23.22;46.19;95062.13;5063432;28;9998;-61
2022/10/17 07:38:55;;;;;;;;;;;;;;;23.22;46.47;95070.38;5076936;28;6921;-61
2022/10/17 07:41:22;;;;;;;;;;;;;;;23.24;46.58;95065.16;5065872;28;7406;-60
2022/10/17 07:43:48;;;;;;;;;;;;;;;23.27;46.51;95066.19;5060974;28;7441;-60
2022/10/17 07:46:14;;;;;;;;;;;;;;;23.29;46.15;95066.47;5061988;28;6956;-60
2022/10/17 07:48:42;;;;;;;;;;;;;;;23.30;46.33;95073.44;5049955;28;7466;-61
2022/10/17 07:51:09;;;;;;;;;;;;;;;23.29;46.30;95080.19;5055239;28;7092;-60
2022/10/17 07:53:39;;;;;;;;;;;;;;;23.31;46.69;95073.00;5050307;28;7187;-60
2022/10/17 07:56:07;;;;;;;;;;;;;;;23.29;46.42;95067.22;5050205;28;9146;-61
2022/10/17 07:58:35;;;;;;;;;;;;;;;23.32;46.11;95079.22;5065210;28;7222;-60
2022/10/17 08:01:05;;;;;;;;;;;;;;;23.33;46.15;95072.50;5059368;28;6984;-60
2022/10/17 08:03:34;;;;;;;;;;;;;;;23.32;46.28;95073.72;5057101;28;6980;-61
2022/10/17 08:06:03;;;;;;;;;;;;;;;23.33;46.64;95087.00;5063098;28;7817;-60
2022/10/17 08:08:29;;;;;;;;;;;;;;;23.32;46.35;95082.72;5054498;28;8795;-61
2022/10/17 08:11:03;;;;;;;;;;;;;;;23.33;46.04;95083.47;5043628;28;7250;-60
2022/10/17 08:13:31;;;;;;;;;;;;;;;23.33;46.54;95083.47;5053531;28;7334;-61
2022/10/17 08:16:03;;;;;;;;;;;;;;;23.32;46.08;95087.44;5045312;28;6967;-60
2022/10/17 08:18:31;;;;;;;;;;;;;;;23.34;46.76;95090.53;5066077;28;7000;-61
2022/10/17 08:21:02;;;;;;;;;;;;;;;23.33;46.55;95087.00;5045080;28;7201;-61
2022/10/17 08:23:55;;;;;;;;;;;;;;;23.36;46.32;95093.53;5038651;28;7418;-60
2022/10/17 08:26:37;;;;;;;;;;;;;;;23.36;46.16;95093.53;5000154;28;7869;-60
2022/10/17 08:29:37;;;;;;;;;;;;;;;23.35;46.32;95094.75;4974077;28;9356;-61
2022/10/17 08:32:04;;;;;;;;;;;;;;;23.37;46.70;95097.78;4944715;28;7208;-60
2022/10/17 08:34:39;;;;;;;;;;;;;;;23.37;46.28;95106.00;4954603;28;7158;-60
2022/10/17 08:37:07;;;;;;;;;;;;;;;23.37;45.99;95100.53;4943554;28;7324;-60
2022/10/17 08:39:35;;;;;;;;;;;;;;;23.37;46.13;95101.28;4937046;28;9673;-61
2022/10/17 08:42:04;;;;;;;;;;;;;;;23.38;46.46;95102.78;4928609;28;7600;-60
2022/10/17 08:44:52;;;;;;;;;;;;;;;23.37;46.16;95100.53;4938547;28;7139;-61
2022/10/17 08:47:44;;;;;;;;;;;;;;;23.35;46.20;95103.00;4950279;28;7391;-61
2022/10/17 08:50:39;;;;;;;;;;;;;;;23.34;46.34;95107.72;4931746;28;7105;-61
2022/10/17 08:53:18;;;;;;;;;;;;;;;23.34;46.60;95109.72;4935549;28;7603;-61
2022/10/17 08:55:47;;;;;;;;;;;;;;;23.34;46.58;95107.00;4944885;28;9860;-61
2022/10/17 08:58:20;;;;;;;;;;;;;;;23.37;46.53;95111.50;4928046;29;7247;-61
2022/10/17 09:01:05;;;;;;;;;;;;;;;23.38;46.56;95111.03;4936193;28;7972;-60
2022/10/17 09:03:59;;;;;;;;;;;;;;;23.39;46.60;95109.03;4979626;28;7282;-61
2022/10/17 09:07:14;;;;;;;;;;;;;;;23.39;46.32;95112.53;5018892;28;7312;-61
2022/10/17 09:09:57;;;;;;;;;;;;;;;23.39;46.59;95104.31;5034574;28;7259;-61
2022/10/17 09:12:58;;;;;;;;;;;;;;;23.37;46.50;95103.28;5026229;28;7199;-60
2022/10/17 09:16:12;;;;;;;;;;;;;;;23.39;46.53;95122.75;5032716;28;7514;-61
2022/10/17 09:19:15;;;;;;;;;;;;;;;23.40;46.25;95113.31;5050421;28;7237;-61
2022/10/17 09:22:00;;;;;;;;;;;;;;;23.37;46.52;95117.75;5055332;28;7447;-60
2022/10/17 09:24:41;;;;;;;;;;;;;;;23.39;46.48;95122.75;5071246;28;9387;-61
2022/10/17 09:27:50;;;;;;;;;;;;;;;23.38;46.52;95122.00;5042105;28;7125;-61
2022/10/17 09:31:09;;;;;;;;;;;;;;;23.40;46.47;95119.56;5055751;28;7386;-61
2022/10/17 09:33:45;;;;;;;;;;;;;;;23.40;46.03;95121.53;5027306;28;7905;-61
2022/10/17 09:36:35;;;;;;;;;;;;;;;23.40;46.11;95121.53;5023831;28;7479;-61
2022/10/17 09:39:16;;;;;;;;;;;;;;;23.40;46.31;95122.31;5031017;28;9023;-60
2022/10/17 09:41:50;;;;;;;;;;;;;;;23.40;46.21;95116.81;5007979;28;7115;-60
2022/10/17 09:44:21;;;;;;;;;;;;;;;23.40;46.15;95121.53;5015230;28;7418;-60
2022/10/17 09:47:24;;;;;;;;;;;;;;;23.42;46.08;95128.06;5001294;28;7005;-61
2022/10/17 09:50:01;;;;;;;;;;;;;;;23.42;46.78;95130.06;5006066;28;7627;-60
2022/10/17 09:52:46;;;;;;;;;;;;;;;23.43;46.31;95124.06;4999469;28;7721;-60
2022/10/17 09:55:28;;;;;;;;;;;;;;;23.43;46.28;95129.56;5011235;28;7365;-61
2022/10/17 09:58:08;;;;;;;;;;;;;;;23.43;46.48;95131.53;5008913;28;8467;-60
2022/10/17 10:01:14;;;;;;;;;;;;;;;23.43;46.71;95135.06;5001934;28;7020;-61
2022/10/17 10:03:40;;;;;;;;;;;;;;;23.42;46.45;95135.53;4994963;28;7068;-61
2022/10/17 10:06:37;;;;;;;;;;;;;;;23.41;46.28;95140.28;4996987;28;7406;-61
2022/10/17 10:09:05;;;;;;;;;;;;;;;23.42;46.40;95143.78;4967576;28;7021;-61
2022/10/17 10:11:53;;;;;;;;;;;;;;;23.43;46.43;95146.03;5007469;28;6990;-61
2022/10/17 10:14:33;;;;;;;;;;;;;;;23.42;46.90;95150.03;4980177;28;9111;-60
2022/10/17 10:17:03;;;;;;;;;;;;;;;23.42;46.29;95154.75;4978422;28;8934;-60
2022/10/17 10:19:49;;;;;;;;;;;;;;;23.41;45.95;95150.50;4984348;28;7343;-61
2022/10/17 10:22:24;;;;;;;;;;;;;;;23.42;46.70;95147.28;4992437;28;7493;-61
2022/10/17 10:25:19;;;;;;;;;;;;;;;23.42;46.45;95141.03;5002565;28;8863;-60
2022/10/17 10:27:47;;;;;;;;;;;;;;;23.41;46.34;95137.53;4991288;28;7248;-61
2022/10/17 10:30:30;;;;;;;;;;;;;;;23.47;46.60;95137.63;4985283;28;8879;-60
2022/10/17 10:33:03;;;;;;;;;;;;;;;23.47;46.25;95148.59;4980975;28;7165;-61
2022/10/17 10:35:32;;;;;;;;;;;;;;;23.48;46.29;95150.09;4990723;28;7253;-60
2022/10/17 10:38:09;;;;;;;;;;;;;;;23.49;46.39;95144.13;4984504;28;8245;-61
2022/10/17 10:41:00;;;;;;;;;;;;;;;23.51;46.74;95146.41;4993829;28;7315;-61
2022/10/17 10:43:42;;;;;;;;;;;;;;;23.50;46.39;95136.63;5010582;28;7710;-61
2022/10/17 10:46:27;;;;;;;;;;;;;;;23.48;46.50;95145.38;5030690;28;7544;-60
2022/10/17 10:48:58;;;;;;;;;;;;;;;23.50;46.26;95139.38;5056127;28;7350;-61
2022/10/17 10:52:01;;;;;;;;;;;;;;;23.48;46.57;95144.59;5085007;28;7181;-61
2022/10/17 10:54:42;;;;;;;;;;;;;;;23.49;46.43;95140.63;4955269;28;7991;-61
2022/10/17 10:57:28;;;;;;;;;;;;;;;23.49;46.36;95140.63;4983124;28;7458;-61
2022/10/17 11:00:18;;;;;;;;;;;;;;;23.49;46.55;95135.16;4974073;28;7849;-61
2022/10/17 11:03:22;;;;;;;;;;;;;;;23.50;46.75;95139.38;4990629;28;7202;-61
2022/10/17 11:06:03;;;;;;;;;;;;;;;23.49;46.32;95132.41;4988481;28;7255;-61
2022/10/17 11:08:44;;;;;;;;;;;;;;;23.48;47.07;95128.88;4998753;28;8180;-61
2022/10/17 11:11:28;;;;;;;;;;;;;;;23.45;46.54;95129.84;4974152;28;7428;-60
2022/10/17 11:14:28;;;;;;;;;;;;;;;23.47;46.61;95129.38;4967102;28;7314;-61
2022/10/17 11:17:17;;;;;;;;;;;;;;;23.47;46.46;95123.88;4972101;28;8931;-61
2022/10/17 11:19:58;;;;;;;;;;;;;;;23.50;46.41;95126.41;4981729;28;9017;-61
2022/10/17 11:22:47;;;;;;;;;;;;;;;23.56;46.46;95112.75;4991137;28;9054;-61
2022/10/17 11:25:33;;;;;;;;;;;;;;;23.59;47.00;95114.56;4974252;28;7496;-61
2022/10/17 11:28:01;;;;;;;;;;;;;;;23.61;46.52;95115.59;4967996;28;7303;-60
2022/10/17 11:30:43;;;;;;;;;;;;;;;23.62;46.30;95110.84;4979614;28;7602;-60
2022/10/17 11:33:42;;;;;;;;;;;;;;;23.63;46.30;95117.84;4988138;28;7582;-60
2022/10/17 11:36:11;;;;;;;;;;;;;;;23.64;46.26;95117.34;4962261;28;8825;-60
2022/10/17 11:38:47;;;;;;;;;;;;;;;23.64;46.33;95113.88;4971601;28;7767;-60
2022/10/17 11:42:05;;;;;;;;;;;;;;;23.65;46.45;95118.13;5021336;28;7350;-61
2022/10/17 11:44:40;;;;;;;;;;;;;;;23.65;46.82;95120.84;4980671;28;7260;-61
2022/10/17 11:47:29;;;;;;;;;;;;;;;23.65;46.38;95112.63;4972212;28;6969;-61
2022/10/17 11:50:16;;;;;;;;;;;;;;;23.67;46.67;95113.66;4976715;28;7322;-60
2022/10/17 11:53:27;;;;;;;;;;;;;;;23.69;46.37;95108.44;4975873;28;7035;-60
2022/10/17 11:56:11;;;;;;;;;;;;;;;23.69;46.62;95111.19;4972906;28;9389;-60
2022/10/17 11:58:51;;;;;;;;;;;;;;;23.71;46.24;95105.19;4969132;28;8447;-61
2022/10/17 12:01:36;;;;;;;;;;;;;;;23.73;46.64;95106.22;4989146;28;9084;-61
2022/10/17 12:04:24;;;;;;;;;;;;;;;23.75;46.41;95103.75;4954729;28;6856;-60
2022/10/17 12:07:09;;;;;;;;;;;;;;;23.77;46.11;95095.78;4982625;28;7100;-60
2022/10/17 12:09:45;;;;;;;;;;;;;;;23.79;46.63;95103.56;4986232;28;7453;-61
2022/10/17 12:12:33;;;;;;;;;;;;;;;23.80;46.36;95102.31;4988643;28;9078;-61
2022/10/17 12:15:30;;;;;;;;;;;;;;;23.83;46.73;95102.13;4959589;28;7402;-61
2022/10/17 12:18:16;;;;;;;;;;;;;;;23.85;46.61;95107.91;4970214;28;7333;-61
2022/10/17 12:20:58;;;;;;;;;;;;;;;23.85;46.22;95102.41;4975562;28;7838;-61
2022/10/17 12:23:28;;;;;;;;;;;;;;;23.85;46.31;95105.16;4998095;28;7004;-61
2022/10/17 12:26:06;;;;;;;;;;;;;;;23.86;46.16;95101.16;4989655;28;7273;-61
2022/10/17 12:28:42;;;;;;;;;;;;;;;23.87;46.27;95099.16;4973844;28;7172;-61
2022/10/17 12:31:11;;;;;;;;;;;;;;;23.90;46.17;95092.72;4990082;28;8479;-60
2022/10/17 12:34:15;;;;;;;;;;;;;;;23.92;46.30;95101.97;4989425;28;7490;-61
2022/10/17 12:36:43;;;;;;;;;;;;;;;23.93;46.42;95098.00;4989231;28;7607;-60
2022/10/17 12:39:12;;;;;;;;;;;;;;;23.95;46.05;95090.00;4973314;28;6964;-61
2022/10/17 12:41:39;;;;;;;;;;;;;;;23.98;46.85;95093.78;4973968;28;9406;-61
2022/10/17 12:44:26;;;;;;;;;;;;;;;24.00;46.07;95091.31;4973467;28;7614;-60
2022/10/17 12:47:04;;;;;;;;;;;;;;;24.02;46.25;95086.09;4938182;29;8997;-61
2022/10/17 12:49:36;;;;;;;;;;;;;;;24.05;46.21;95093.41;4930066;29;7007;-61
2022/10/17 12:52:08;;;;;;;;;;;;;;;24.07;46.56;95096.41;4920088;29;8735;-61
2022/10/17 12:55:09;;;;;;;;;;;;;;;24.09;45.95;95096.69;4925398;28;6938;-61
2022/10/17 12:58:04;;;;;;;;;;;;;;;24.09;46.61;95093.94;4961129;28;7362;-60
2022/10/17 13:00:43;;;;;;;;;;;;;;;24.09;46.68;95096.69;4938111;28;7179;-61
2022/10/17 13:03:41;;;;;;;;;;;;;;;24.13;46.68;95099.97;4943993;28;7520;-60
2022/10/17 13:06:21;;;;;;;;;;;;;;;24.16;46.67;95092.75;4947029;28;7167;-61
2022/10/17 13:08:55;;;;;;;;;;;;;;;24.15;46.56;95097.50;4962300;28;9436;-61
2022/10/17 13:11:29;;;;;;;;;;;;;;;24.15;46.15;95097.50;4963874;28;9285;-61
2022/10/17 13:14:02;;;;;;;;;;;;;;;24.19;46.27;95102.78;4971596;28;7474;-61
2022/10/17 13:16:34;;;;;;;;;;;;;;;24.20;46.22;95101.53;4979783;28;9116;-60
2022/10/17 13:19:19;;;;;;;;;;;;;;;24.22;46.22;95110.06;4976222;28;7169;-61
2022/10/17 13:22:23;;;;;;;;;;;;;;;24.26;46.35;95110.59;4999532;28;7439;-61
2022/10/17 13:24:52;;;;;;;;;;;;;;;24.27;46.59;95112.84;4976796;28;7185;-61
2022/10/17 13:27:45;;;;;;;;;;;;;;;24.31;46.18;95112.66;4989474;28;6982;-60
2022/10/17 13:30:27;;;;;;;;;;;;;;;24.34;46.25;95108.91;4969097;28;7078;-61
2022/10/17 13:32:58;;;;;;;;;;;;;;;24.35;46.09;95107.69;4985459;28;7197;-61
2022/10/17 13:35:37;;;;;;;;;;;;;;;24.38;46.51;95106.72;4990776;28;7174;-61
2022/10/17 13:38:08;;;;;;;;;;;;;;;24.41;46.33;95106.50;4976375;28;7219;-61
2022/10/17 13:40:43;;;;;;;;;;;;;;;24.42;46.44;95105.28;4974994;28;7332;-61
2022/10/17 13:43:29;;;;;;;;;;;;;;;24.46;45.82;95102.31;5007839;28;8983;-60
2022/10/17 13:46:04;;;;;;;;;;;;;;;24.49;46.23;95102.06;4991419;28;9003;-61
2022/10/17 13:48:35;;;;;;;;;;;;;;;24.49;45.80;95102.06;4980265;28;9058;-61
2022/10/17 13:51:05;;;;;;;;;;;;;;;24.52;45.69;95106.59;4988199;28;7139;-60